Terminal Aerodrome Forecast
Issued by NWS

Home | Current Version | Previous Version | Text Only | Print | Product List | Glossary On
Versions: 1 2 3 4 5 6 7 8 9 10 11 12 13 14 15 16 17 18 19 20 21
000
FTUS41 KOKX 200800 AAA
TAFSWF
TAF AMD
KSWF 200831Z 2009/2112 00000KT P6SM FEW020 SCT080
     FM201500 VRB05KT P6SM SCT040 SCT250
     FM201900 18005KT P6SM SCT040 BKN250
     FM210000 VRB03KT P6SM BKN040 BKN120
     FM210600 VRB03KT 6SM BR VCSH BKN040 BKN120
      AMD NOT SKED=

USA.gov is the U.S. government's official web portal to all federal, state and local government web resources and services.